sensor_id;sensor_type;location;lat;lon;timestamp;P1;durP1;ratioP1;P2;durP2;ratioP2
1523;SDS011;755;53.658;10.118;2023-02-17T00:00:33;94.03;;;51.67;;
1523;SDS011;755;53.658;10.118;2023-02-17T00:10:36;116.55;;;56.97;;
1523;SDS011;755;53.658;10.118;2023-02-17T00:20:40;102.38;;;55.42;;
1523;SDS011;755;53.658;10.118;2023-02-17T00:30:42;100.93;;;53.78;;
1523;SDS011;755;53.658;10.118;2023-02-17T00:40:45;103.82;;;54.58;;
1523;SDS011;755;53.658;10.118;2023-02-17T00:50:48;102.38;;;53.20;;
1523;SDS011;755;53.658;10.118;2023-02-17T01:00:51;99.22;;;51.20;;
1523;SDS011;755;53.658;10.118;2023-02-17T01:10:55;103.25;;;49.38;;
1523;SDS011;755;53.658;10.118;2023-02-17T01:20:59;95.93;;;47.88;;
1523;SDS011;755;53.658;10.118;2023-02-17T01:31:03;85.97;;;44.45;;
1523;SDS011;755;53.658;10.118;2023-02-17T01:41:08;80.15;;;43.10;;
1523;SDS011;755;53.658;10.118;2023-02-17T01:51:12;85.75;;;44.13;;
1523;SDS011;755;53.658;10.118;2023-02-17T02:01:18;77.25;;;40.65;;
1523;SDS011;755;53.658;10.118;2023-02-17T02:11:22;80.75;;;39.80;;
1523;SDS011;755;53.658;10.118;2023-02-17T02:32:05;64.80;;;36.37;;
1523;SDS011;755;53.658;10.118;2023-02-17T02:42:30;74.10;;;35.57;;
1523;SDS011;755;53.658;10.118;2023-02-17T02:52:35;68.28;;;35.70;;
1523;SDS011;755;53.658;10.118;2023-02-17T03:02:48;62.67;;;33.15;;
1523;SDS011;755;53.658;10.118;2023-02-17T03:12:56;54.72;;;30.38;;
1523;SDS011;755;53.658;10.118;2023-02-17T03:23:00;58.80;;;29.63;;
1523;SDS011;755;53.658;10.118;2023-02-17T03:33:02;48.50;;;26.88;;
1523;SDS011;755;53.658;10.118;2023-02-17T03:43:06;48.33;;;27.30;;
1523;SDS011;755;53.658;10.118;2023-02-17T03:53:09;47.17;;;24.95;;
1523;SDS011;755;53.658;10.118;2023-02-17T04:03:12;51.33;;;27.27;;
1523;SDS011;755;53.658;10.118;2023-02-17T04:13:14;54.25;;;27.80;;
1523;SDS011;755;53.658;10.118;2023-02-17T04:23:18;44.88;;;24.10;;
1523;SDS011;755;53.658;10.118;2023-02-17T04:33:20;48.35;;;23.60;;
1523;SDS011;755;53.658;10.118;2023-02-17T04:43:23;53.35;;;25.42;;
1523;SDS011;755;53.658;10.118;2023-02-17T04:53:26;50.65;;;26.15;;
1523;SDS011;755;53.658;10.118;2023-02-17T05:03:30;57.20;;;26.00;;
1523;SDS011;755;53.658;10.118;2023-02-17T05:13:32;59.55;;;25.90;;
1523;SDS011;755;53.658;10.118;2023-02-17T05:23:35;62.13;;;28.67;;
1523;SDS011;755;53.658;10.118;2023-02-17T05:33:40;65.43;;;26.57;;
1523;SDS011;755;53.658;10.118;2023-02-17T05:43:43;57.55;;;24.85;;
1523;SDS011;755;53.658;10.118;2023-02-17T05:53:45;60.47;;;24.40;;
1523;SDS011;755;53.658;10.118;2023-02-17T06:03:48;68.20;;;25.45;;
1523;SDS011;755;53.658;10.118;2023-02-17T06:13:50;71.00;;;27.70;;
1523;SDS011;755;53.658;10.118;2023-02-17T06:23:54;84.60;;;31.67;;
1523;SDS011;755;53.658;10.118;2023-02-17T06:33:56;79.68;;;28.92;;
1523;SDS011;755;53.658;10.118;2023-02-17T06:44:01;81.78;;;28.73;;
1523;SDS011;755;53.658;10.118;2023-02-17T06:54:03;92.05;;;30.33;;
1523;SDS011;755;53.658;10.118;2023-02-17T07:04:07;91.32;;;32.75;;
1523;SDS011;755;53.658;10.118;2023-02-17T07:14:09;97.15;;;34.67;;
1523;SDS011;755;53.658;10.118;2023-02-17T07:24:13;113.80;;;37.17;;
1523;SDS011;755;53.658;10.118;2023-02-17T07:34:15;109.85;;;34.05;;
1523;SDS011;755;53.658;10.118;2023-02-17T07:44:19;108.55;;;36.20;;
1523;SDS011;755;53.658;10.118;2023-02-17T07:54:21;113.75;;;37.72;;
1523;SDS011;755;53.658;10.118;2023-02-17T08:04:24;116.30;;;35.53;;
1523;SDS011;755;53.658;10.118;2023-02-17T08:14:27;108.13;;;32.53;;
1523;SDS011;755;53.658;10.118;2023-02-17T08:24:32;104.88;;;33.80;;
1523;SDS011;755;53.658;10.118;2023-02-17T08:34:34;111.60;;;34.03;;
1523;SDS011;755;53.658;10.118;2023-02-17T08:44:37;90.00;;;27.33;;
1523;SDS011;755;53.658;10.118;2023-02-17T08:54:39;81.90;;;26.25;;
1523;SDS011;755;53.658;10.118;2023-02-17T09:04:43;81.38;;;27.88;;
1523;SDS011;755;53.658;10.118;2023-02-17T09:14:45;68.57;;;23.08;;
1523;SDS011;755;53.658;10.118;2023-02-17T09:24:49;81.80;;;25.73;;
1523;SDS011;755;53.658;10.118;2023-02-17T09:34:51;71.18;;;24.65;;
1523;SDS011;755;53.658;10.118;2023-02-17T09:44:56;66.43;;;23.27;;
1523;SDS011;755;53.658;10.118;2023-02-17T09:55:03;63.15;;;20.90;;
1523;SDS011;755;53.658;10.118;2023-02-17T10:05:10;49.90;;;17.63;;
1523;SDS011;755;53.658;10.118;2023-02-17T10:15:17;61.97;;;21.75;;
1523;SDS011;755;53.658;10.118;2023-02-17T10:25:32;65.23;;;20.43;;
1523;SDS011;755;53.658;10.118;2023-02-17T10:36:09;69.43;;;22.02;;
1523;SDS011;755;53.658;10.118;2023-02-17T10:46:14;64.00;;;20.60;;
1523;SDS011;755;53.658;10.118;2023-02-17T10:56:20;53.35;;;18.35;;
1523;SDS011;755;53.658;10.118;2023-02-17T11:06:28;52.92;;;16.60;;
1523;SDS011;755;53.658;10.118;2023-02-17T11:16:34;53.53;;;16.67;;
1523;SDS011;755;53.658;10.118;2023-02-17T11:26:39;51.20;;;16.88;;
1523;SDS011;755;53.658;10.118;2023-02-17T11:36:43;55.28;;;17.67;;
1523;SDS011;755;53.658;10.118;2023-02-17T11:46:49;56.47;;;18.17;;
1523;SDS011;755;53.658;10.118;2023-02-17T11:57:02;61.28;;;21.02;;
1523;SDS011;755;53.658;10.118;2023-02-17T12:07:25;65.45;;;20.30;;
1523;SDS011;755;53.658;10.118;2023-02-17T12:17:42;47.80;;;16.90;;
1523;SDS011;755;53.658;10.118;2023-02-17T12:27:57;51.00;;;16.35;;
1523;SDS011;755;53.658;10.118;2023-02-17T12:38:12;50.03;;;16.83;;
1523;SDS011;755;53.658;10.118;2023-02-17T12:48:20;44.57;;;15.77;;
1523;SDS011;755;53.658;10.118;2023-02-17T12:58:26;45.40;;;14.10;;
1523;SDS011;755;53.658;10.118;2023-02-17T13:08:32;33.30;;;12.15;;
1523;SDS011;755;53.658;10.118;2023-02-17T13:18:39;27.80;;;10.88;;
1523;SDS011;755;53.658;10.118;2023-02-17T13:28:44;23.92;;;9.38;;
1523;SDS011;755;53.658;10.118;2023-02-17T13:38:54;24.52;;;10.82;;
1523;SDS011;755;53.658;10.118;2023-02-17T13:49:02;37.40;;;11.00;;
1523;SDS011;755;53.658;10.118;2023-02-17T13:59:06;52.13;;;13.13;;
1523;SDS011;755;53.658;10.118;2023-02-17T14:09:17;33.63;;;10.55;;
1523;SDS011;755;53.658;10.118;2023-02-17T14:19:22;30.60;;;9.57;;
1523;SDS011;755;53.658;10.118;2023-02-17T14:29:25;25.30;;;4.53;;
1523;SDS011;755;53.658;10.118;2023-02-17T14:39:38;25.58;;;3.80;;
1523;SDS011;755;53.658;10.118;2023-02-17T14:49:42;24.13;;;3.20;;
1523;SDS011;755;53.658;10.118;2023-02-17T14:59:44;45.40;;;4.13;;
1523;SDS011;755;53.658;10.118;2023-02-17T15:09:47;35.03;;;4.43;;
1523;SDS011;755;53.658;10.118;2023-02-17T15:19:49;26.58;;;3.55;;
1523;SDS011;755;53.658;10.118;2023-02-17T15:29:52;25.92;;;4.18;;
1523;SDS011;755;53.658;10.118;2023-02-17T15:39:54;35.88;;;5.75;;
1523;SDS011;755;53.658;10.118;2023-02-17T15:49:59;49.55;;;4.43;;
1523;SDS011;755;53.658;10.118;2023-02-17T16:00:01;40.80;;;4.97;;
1523;SDS011;755;53.658;10.118;2023-02-17T16:10:05;32.22;;;4.35;;
1523;SDS011;755;53.658;10.118;2023-02-17T16:20:15;29.20;;;4.00;;
1523;SDS011;755;53.658;10.118;2023-02-17T16:30:21;28.58;;;4.55;;
1523;SDS011;755;53.658;10.118;2023-02-17T16:40:26;25.80;;;5.33;;
1523;SDS011;755;53.658;10.118;2023-02-17T16:50:31;38.53;;;4.63;;
1523;SDS011;755;53.658;10.118;2023-02-17T17:00:34;19.83;;;3.15;;
1523;SDS011;755;53.658;10.118;2023-02-17T17:10:38;34.65;;;4.25;;
1523;SDS011;755;53.658;10.118;2023-02-17T17:20:41;41.50;;;4.65;;
1523;SDS011;755;53.658;10.118;2023-02-17T17:30:44;47.15;;;5.05;;
1523;SDS011;755;53.658;10.118;2023-02-17T17:40:46;27.65;;;3.65;;
1523;SDS011;755;53.658;10.118;2023-02-17T17:50:50;33.38;;;4.00;;
1523;SDS011;755;53.658;10.118;2023-02-17T18:00:52;37.78;;;4.65;;
1523;SDS011;755;53.658;10.118;2023-02-17T18:10:56;29.27;;;3.63;;
1523;SDS011;755;53.658;10.118;2023-02-17T18:20:58;31.13;;;4.60;;
1523;SDS011;755;53.658;10.118;2023-02-17T18:31:05;33.78;;;4.75;;
1523;SDS011;755;53.658;10.118;2023-02-17T18:41:14;29.55;;;3.95;;
1523;SDS011;755;53.658;10.118;2023-02-17T18:51:18;36.10;;;4.97;;
1523;SDS011;755;53.658;10.118;2023-02-17T19:01:23;31.02;;;4.53;;
1523;SDS011;755;53.658;10.118;2023-02-17T19:11:53;27.73;;;4.23;;
1523;SDS011;755;53.658;10.118;2023-02-17T19:21:55;27.83;;;4.43;;
1523;SDS011;755;53.658;10.118;2023-02-17T19:31:59;45.80;;;4.72;;
1523;SDS011;755;53.658;10.118;2023-02-17T19:42:03;31.75;;;4.40;;
1523;SDS011;755;53.658;10.118;2023-02-17T19:52:07;34.97;;;3.88;;
1523;SDS011;755;53.658;10.118;2023-02-17T20:02:11;34.58;;;4.47;;
1523;SDS011;755;53.658;10.118;2023-02-17T20:12:15;40.35;;;5.00;;
1523;SDS011;755;53.658;10.118;2023-02-17T20:22:17;26.52;;;4.15;;
1523;SDS011;755;53.658;10.118;2023-02-17T20:32:21;34.30;;;3.50;;
1523;SDS011;755;53.658;10.118;2023-02-17T20:42:23;40.13;;;4.07;;
1523;SDS011;755;53.658;10.118;2023-02-17T20:52:27;26.67;;;4.95;;
1523;SDS011;755;53.658;10.118;2023-02-17T21:02:28;44.30;;;4.22;;
1523;SDS011;755;53.658;10.118;2023-02-17T21:12:32;28.92;;;3.33;;
1523;SDS011;755;53.658;10.118;2023-02-17T21:22:34;25.75;;;4.03;;
1523;SDS011;755;53.658;10.118;2023-02-17T21:32:37;33.10;;;4.65;;
1523;SDS011;755;53.658;10.118;2023-02-17T21:42:39;34.83;;;4.22;;
1523;SDS011;755;53.658;10.118;2023-02-17T21:53:00;40.65;;;3.47;;
1523;SDS011;755;53.658;10.118;2023-02-17T22:03:02;44.15;;;4.82;;
1523;SDS011;755;53.658;10.118;2023-02-17T22:13:05;34.10;;;3.42;;
1523;SDS011;755;53.658;10.118;2023-02-17T22:23:07;36.55;;;4.18;;
1523;SDS011;755;53.658;10.118;2023-02-17T22:33:11;33.63;;;3.63;;
1523;SDS011;755;53.658;10.118;2023-02-17T22:43:12;28.73;;;3.25;;
1523;SDS011;755;53.658;10.118;2023-02-17T22:53:16;36.53;;;3.88;;
1523;SDS011;755;53.658;10.118;2023-02-17T23:03:18;48.67;;;5.18;;
1523;SDS011;755;53.658;10.118;2023-02-17T23:13:21;36.13;;;4.15;;
1523;SDS011;755;53.658;10.118;2023-02-17T23:23:23;38.20;;;4.72;;
1523;SDS011;755;53.658;10.118;2023-02-17T23:33:27;36.25;;;4.03;;
1523;SDS011;755;53.658;10.118;2023-02-17T23:43:30;26.27;;;3.25;;
1523;SDS011;755;53.658;10.118;2023-02-17T23:53:33;42.03;;;4.05;;
